x

East Scotia Slope (44137) Wave Buoy

12:00pm - Mon 3rd Aug 2015 All times are EDT. -4 hours from GMT.

  • Sig Wave height 3.9ft
  • Peak Period 8s
  • Wind
    9mph, 11mph gusts
  • Sea Temp 72°f
  • Air Temp 73°f
  • Sea Pressure 1017.2mb
  • East Scotia Slope
  • East Scotia Slope

More Historic Weather Station data

Upgrade to MSW Pro to gain access to the past 30 days of data for over 8000 Wavebouys and Weather Stations around the globe.

Join Pro

Comparision Forecast

View Surf forecast
   
Mon 08/03 12:00pm 4ft 8s 9 11 mph 1017.2mb 72f 73f
11:00am 4ft 7s 4 9 mph 1017mb 72f 73f
10:00am 4.5ft 7s  -  2 mph 1017.2mb 71f 73f
9:00am 4.5ft 8s 4 7 mph 1017.1mb 71f 72f
8:00am 4ft 7s 7 9 mph 1017mb 71f 72f
7:00am 4ft 8s  -  4 mph 1016.8mb 71f 71f
6:00am 4ft 7s  -  2 mph 1016.7mb 71f 71f
5:00am 3.5ft 9s 4
mph
1015.9mb 71f 71f
4:00am 4ft 9s 4 9 mph 1015.3mb 71f 71f
3:00am 4ft 10s 7 9 mph 1015.2mb 71f 71f
2:00am 4.5ft 9s 9
mph
1015.2mb 71f 71f
1:00am 4.5ft 8s 11 13 mph 1015.5mb 71f 71f
12:00am 5ft 7s 13 16 mph 1015.3mb 72f 71f
Sun 08/02 11:00pm 5ft 7s 11 13 mph 1014.9mb 71f 71f
10:00pm 4.5ft 6s 13
mph
1015.2mb 71f 72f
9:00pm 5ft 9s 11 13 mph 1015mb 71f 72f
8:00pm 5ft 8s 13 16 mph 1014.4mb 71f 72f
7:00pm 5ft 10s 13 16 mph 1013.9mb 71f 73f
6:00pm 5ft 10s 11 13 mph 1013.8mb 71f 73f
5:00pm 5ft 10s 13 18 mph 1013.7mb 71f 73f
4:00pm 5.5ft 10s 13 16 mph 1013.6mb 71f 73f
3:00pm 5.5ft 10s 13 18 mph 1013.3mb 71f 73f
2:00pm 5.5ft 10s 18 20 mph 1013.3mb 71f 73f
1:00pm 5.5ft 10s 16 22 mph 1013.3mb 71f 74f
12:00pm 6ft 10s 16 20 mph 1013.1mb 71f 74f
11:00am 6ft 10s 13 18 mph 1012.9mb 71f 73f
10:00am 6ft 11s 16 18 mph 1012.6mb 71f 73f
9:00am 6ft 10s 18 20 mph 1012.3mb 71f 74f
8:00am 6ft 11s 18 20 mph 1011.8mb 71f 74f
7:00am 6ft 11s 18 20 mph 1011.6mb 71f 73f
6:00am 6.5ft 11s 16 18 mph 1011.5mb 71f 73f
5:00am 6.5ft 10s 16 18 mph 1011mb 71f 73f
4:00am 6ft 11s 13 18 mph 1011mb 71f 72f
3:00am 6ft 11s 13 18 mph 1011.3mb 71f 72f
2:00am 5ft 10s 13
mph
1011.3mb 71f 72f
1:00am 5.5ft 8s 13 16 mph 1011.7mb 71f 72f
12:00am 5ft 10s 13 16 mph 1011.7mb 71f 72f
Sat 08/01 11:00pm 5ft 10s 13 16 mph 1011.7mb 71f 72f
10:00pm 5ft 7s 13 16 mph 1011.4mb 71f 72f
9:00pm 5ft 9s 11 16 mph 1011mb 72f 72f
8:00pm 5ft 8s 9 11 mph 1010.5mb 72f 72f
7:00pm 5ft 10s 11 13 mph 1009.8mb 72f 72f
6:00pm 4.5ft 8s 11 13 mph 1009.5mb 72f 73f
5:00pm 4.5ft 8s 9 11 mph 1009.2mb 72f 72f
4:00pm 4ft 8s 11 13 mph 1009.3mb 72f 72f
3:00pm 4.5ft 7s 9 11 mph 1009.6mb 72f 72f
2:00pm 4.5ft 8s 9 11 mph 1009.7mb 72f 72f
1:00pm 4.5ft 8s 7 9 mph 1009.7mb 72f 71f
12:00pm 5ft 8s 7 9 mph 1009.8mb 71f 71f
11:00am 5ft 8s 7
mph
1009.9mb 71f 71f
10:00am 5.5ft 7s 7 9 mph 1009.9mb 71f 70f
9:00am 5.5ft 7s 7 9 mph 1009.4mb 71f 70f
8:00am 5ft 7s 4 7 mph 1009.4mb 71f 70f
7:00am 5ft 8s 7 9 mph 1010mb 71f 70f
6:00am 4.5ft 7s 7 9 mph 1010mb 71f 70f
5:00am 4.5ft 8s 4 7 mph 1009.3mb 71f 69f
4:00am 4.5ft 8s 4 7 mph 1009.5mb 71f 68f
3:00am 4.5ft 8s 4 9 mph 1009.6mb 71f 68f
2:00am 5ft 8s 9 11 mph 1009.9mb 71f 68f
1:00am 4.5ft 8s 9 11 mph 1010mb 71f 70f
12:00am 4.5ft 7s 11 13 mph 1010.1mb 71f 71f
Fri 07/31 11:00pm 4.5ft 6s 11 13 mph 1010mb 71f 71f
10:00pm 4.5ft 7s 11 13 mph 1010mb 71f 72f
9:00pm 4.5ft 6s 13 16 mph 1009.9mb 71f 72f
8:00pm 5ft 6s 18 20 mph 1009.6mb 71f 73f
6:00pm 4ft 5s 16 18 mph 1009.1mb 71f 73f
5:00pm 3.5ft 8s 16 18 mph 1009.2mb 72f 73f
4:00pm 3.5ft 9s 13 18 mph 1009.3mb 72f 73f
3:00pm 3.5ft 8s 16 18 mph 1009.5mb 72f 73f
2:00pm 3.5ft 9s 13 18 mph 1010.1mb 72f 73f
1:00pm 3.5ft 8s 13 16 mph 1010.3mb 72f 74f
12:00pm 3.5ft 8s 16 18 mph 1010.8mb 72f 74f
11:00am 4ft 9s 11 13 mph 1011.1mb 71f 74f
10:00am 4ft 7s 13
mph
1011.4mb 71f 74f
9:00am 4ft 9s 13
mph
1011.8mb 71f 74f
8:00am 4.5ft 9s 11 13 mph 1012.4mb 71f 73f
7:00am 4.5ft 9s 11
mph
1012.3mb 71f 72f
6:00am 4ft 9s 9 11 mph 1012.4mb 71f 72f
5:00am 4ft 9s 9 11 mph 1012.4mb 71f 71f
4:00am 4.5ft 9s 11 13 mph 1012.9mb 71f 71f
3:00am 4.5ft 9s 11 16 mph 1013mb 71f 71f
2:00am 4.5ft 10s 16 20 mph 1013mb 71f 71f
1:00am 4ft 8s 18 22 mph 1013.5mb 71f 71f
12:00am 4ft 10s 13 16 mph 1013.7mb 71f 71f
Thu 07/30 11:00pm 4ft 11s 11 16 mph 1013.9mb 71f 71f
10:00pm 4ft 8s 13 16 mph 1014.1mb 72f 72f
9:00pm 4ft 8s 7 9 mph 1014.2mb 73f 73f
8:00pm 4ft 7s 7 9 mph 1013.8mb 73f 73f
7:00pm 4ft 8s 7 9 mph 1013.6mb 73f 73f
6:00pm 4.5ft 8s 4 7 mph 1013.6mb 74f 73f